createdAt,value
2022-09-22T00:02:26.034Z,16.39404296875
2022-09-22T00:12:25.897Z,16.50390625
2022-09-22T00:22:25.845Z,15.6982421875
2022-09-22T00:32:25.758Z,14.794921875
2022-09-22T00:42:25.687Z,15.90576171875
2022-09-22T00:52:25.633Z,15.5029296875
2022-09-22T01:02:25.562Z,15.10009765625
2022-09-22T01:12:25.510Z,15.10009765625
2022-09-22T01:22:25.449Z,15.00244140625
2022-09-22T01:32:25.348Z,14.501953125
2022-09-22T01:42:25.281Z,14.599609375
2022-09-22T01:52:25.212Z,14.599609375
2022-09-22T02:02:25.287Z,13.6962890625
2022-09-22T02:12:25.068Z,13.90380859375
2022-09-22T02:22:24.979Z,13.5986328125
2022-09-22T02:32:24.905Z,13.5986328125
2022-09-22T02:42:24.836Z,13.7939453125
2022-09-22T02:52:24.800Z,13.4033203125
2022-09-22T03:02:24.767Z,14.00146484375
2022-09-22T03:12:24.625Z,13.4033203125
2022-09-22T03:22:24.657Z,13.4033203125
2022-09-22T03:32:24.490Z,13.19580078125
2022-09-22T03:42:24.418Z,13.5009765625
2022-09-22T03:52:24.340Z,13.19580078125
2022-09-22T04:02:24.384Z,12.90283203125
2022-09-22T04:12:24.216Z,12.90283203125
2022-09-22T04:22:24.144Z,13.00048828125
2022-09-22T04:32:24.050Z,12.6953125
2022-09-22T04:42:24.002Z,12.09716796875
2022-09-22T04:52:23.926Z,11.700439453125
2022-09-22T05:02:23.861Z,11.90185546875
2022-09-22T05:12:24.110Z,11.700439453125
2022-09-22T05:22:24.017Z,11.700439453125
2022-09-22T05:32:23.910Z,11.700439453125
2022-09-22T05:42:24.016Z,11.602783203125
2022-09-22T05:52:23.673Z,11.102294921875
2022-09-22T06:02:26.419Z,10.99853515625
2022-09-22T06:12:23.799Z,10.699462890625
2022-09-22T06:22:23.869Z,10.498046875
2022-09-22T06:32:23.578Z,10.498046875
2022-09-22T06:42:23.512Z,10.498046875
2022-09-22T06:52:23.727Z,10.400390625
2022-09-22T07:02:24.772Z,10.302734375
2022-09-22T07:12:23.304Z,10.198974609375
2022-09-22T07:22:23.263Z,10.101318359375
2022-09-22T07:32:23.033Z,10.101318359375
2022-09-22T07:42:23.332Z,9.80224609375
2022-09-22T07:52:23.157Z,9.80224609375
2022-09-22T08:02:22.821Z,9.80224609375
2022-09-22T08:12:22.940Z,9.80224609375
2022-09-22T08:22:22.683Z,9.80224609375
2022-09-22T08:32:22.699Z,9.80224609375
2022-09-22T08:42:22.911Z,9.80224609375
2022-09-22T08:52:22.795Z,9.698486328125
2022-09-22T09:02:22.503Z,9.89990234375
2022-09-22T09:12:22.152Z,9.89990234375
2022-09-22T09:22:22.061Z,9.89990234375
2022-09-22T09:32:22.011Z,9.80224609375
2022-09-22T09:42:21.928Z,9.89990234375
2022-09-22T09:52:21.881Z,9.99755859375
2022-09-22T10:02:21.789Z,9.89990234375
2022-09-22T10:12:21.731Z,9.89990234375
2022-09-22T10:22:21.672Z,9.99755859375
2022-09-22T10:32:21.606Z,9.89990234375
2022-09-22T10:42:21.536Z,9.89990234375
2022-09-22T10:52:21.561Z,9.99755859375
2022-09-22T11:02:21.498Z,9.99755859375
2022-09-22T11:12:21.326Z,9.99755859375
2022-09-22T11:22:21.363Z,9.99755859375
2022-09-22T11:32:21.219Z,9.99755859375
2022-09-22T11:42:21.118Z,9.99755859375
2022-09-22T11:52:21.053Z,9.99755859375
2022-09-22T12:02:21.184Z,9.89990234375
2022-09-22T12:12:20.906Z,9.99755859375
2022-09-22T12:22:20.855Z,9.89990234375
2022-09-22T12:32:20.788Z,9.89990234375
2022-09-22T12:42:20.726Z,9.89990234375
2022-09-22T12:52:20.661Z,9.89990234375
2022-09-22T13:02:20.630Z,9.89990234375
2022-09-22T13:12:20.619Z,9.89990234375
2022-09-22T13:22:20.456Z,9.99755859375
2022-09-22T13:42:20.315Z,9.89990234375
2022-09-22T13:52:20.233Z,9.89990234375
2022-09-22T14:02:20.261Z,9.89990234375
2022-09-22T14:12:20.113Z,9.80224609375
2022-09-22T14:22:20.051Z,9.99755859375
2022-09-22T14:32:19.973Z,9.89990234375
2022-09-22T14:42:19.912Z,9.89990234375
2022-09-22T14:52:19.823Z,9.89990234375
2022-09-22T15:02:19.816Z,9.99755859375
2022-09-22T15:12:19.515Z,9.89990234375
2022-09-22T15:22:19.445Z,9.99755859375
2022-09-22T15:32:19.384Z,9.99755859375
2022-09-22T15:42:19.504Z,9.99755859375
2022-09-22T15:52:19.557Z,10.101318359375
2022-09-22T16:02:19.396Z,9.99755859375
2022-09-22T16:12:23.231Z,10.101318359375
2022-09-22T16:22:19.263Z,10.101318359375
2022-09-22T16:32:19.178Z,9.99755859375
2022-09-22T16:42:23.400Z,9.99755859375
2022-09-22T16:52:19.075Z,9.99755859375
2022-09-22T17:02:19.038Z,10.101318359375
2022-09-22T17:12:19.021Z,10.198974609375
2022-09-22T17:22:18.827Z,10.101318359375
2022-09-22T17:32:18.786Z,10.198974609375
2022-09-22T17:42:18.709Z,10.198974609375
2022-09-22T17:52:18.638Z,10.302734375
2022-09-22T18:02:18.576Z,10.400390625
2022-09-22T18:12:18.511Z,10.400390625
2022-09-22T18:22:18.408Z,10.400390625
2022-09-22T18:32:18.367Z,10.498046875
2022-09-22T18:42:18.290Z,10.601806640625
2022-09-22T18:52:18.209Z,10.699462890625
2022-09-22T19:02:18.274Z,10.797119140625
2022-09-22T19:12:18.074Z,11.102294921875
2022-09-22T19:22:18.005Z,11.199951171875
2022-09-22T19:32:17.940Z,11.4013671875
2022-09-22T19:42:17.869Z,11.297607421875
2022-09-22T19:50:50.367Z,11.297607421875
2022-09-22T20:00:50.000Z,11.4990234375
2022-09-22T20:10:58.257Z,11.602783203125
2022-09-22T20:20:51.086Z,11.90185546875
2022-09-22T20:30:49.855Z,12.200927734375
2022-09-22T20:40:49.716Z,12.40234375
2022-09-22T20:50:49.664Z,12.90283203125
2022-09-22T21:00:49.595Z,12.6953125
2022-09-22T21:10:49.533Z,12.09716796875
2022-09-22T21:30:49.436Z,12.09716796875
2022-09-22T21:40:49.382Z,12.09716796875
2022-09-22T21:50:49.264Z,12.40234375
2022-09-22T22:00:51.954Z,12.5
2022-09-22T22:10:50.110Z,12.90283203125
2022-09-22T22:20:49.042Z,13.00048828125
2022-09-22T22:30:48.991Z,13.00048828125
2022-09-22T22:40:48.959Z,12.80517578125
2022-09-22T22:50:48.839Z,12.5
2022-09-22T23:00:49.754Z,12.5
2022-09-22T23:10:48.681Z,12.298583984375
2022-09-22T23:20:48.630Z,12.5
2022-09-22T23:30:48.589Z,12.59765625
2022-09-22T23:40:48.905Z,12.59765625
2022-09-22T23:50:49.035Z,12.59765625
